createdAt,value
2019-04-07T00:00:26.542Z,9.56
2019-04-07T00:01:26.610Z,9.40
2019-04-07T00:02:26.810Z,9.35
2019-04-07T00:03:26.988Z,9.42
2019-04-07T00:04:27.281Z,9.48
2019-04-07T00:05:27.799Z,9.55
2019-04-07T00:06:27.472Z,9.34
2019-04-07T00:07:27.659Z,9.45
2019-04-07T00:08:28.307Z,9.44
2019-04-07T00:09:28.620Z,9.50
2019-04-07T00:10:28.756Z,9.42
2019-04-07T00:11:28.755Z,9.55
2019-04-07T00:12:29.355Z,9.49
2019-04-07T00:13:29.387Z,9.56
2019-04-07T00:14:29.401Z,9.45
2019-04-07T00:15:29.389Z,9.45
2019-04-07T00:16:29.762Z,9.41
2019-04-07T00:17:29.682Z,9.45
2019-04-07T00:18:29.841Z,9.52
2019-04-07T00:19:30.748Z,9.52
2019-04-07T00:20:30.852Z,9.50
2019-04-07T00:21:31.432Z,9.48
2019-04-07T00:22:30.470Z,9.44
2019-04-07T00:23:30.790Z,9.35
2019-04-07T00:24:30.840Z,9.58
2019-04-07T00:25:32.039Z,9.37
2019-04-07T00:26:31.249Z,9.40
2019-04-07T00:27:31.829Z,9.45
2019-04-07T00:28:32.501Z,9.62
2019-04-07T00:29:31.708Z,9.65
2019-04-07T00:30:31.875Z,9.49
2019-04-07T00:31:32.033Z,9.42
2019-04-07T00:32:32.787Z,9.58
2019-04-07T00:33:32.401Z,9.48
2019-04-07T00:34:32.482Z,9.53
2019-04-07T00:35:33.613Z,9.44
2019-04-07T00:36:34.164Z,9.48
2019-04-07T00:37:33.660Z,9.45
2019-04-07T00:38:33.272Z,9.45
2019-04-07T00:39:33.551Z,9.41
2019-04-07T00:40:33.828Z,9.34
2019-04-07T00:41:34.253Z,9.30
2019-04-07T00:42:33.902Z,9.44
2019-04-07T00:43:34.254Z,9.48
2019-04-07T00:44:35.190Z,9.37
2019-04-07T00:45:35.306Z,9.37
2019-04-07T00:46:34.760Z,9.41
2019-04-07T00:47:34.934Z,9.42
2019-04-07T00:48:34.986Z,9.42
2019-04-07T00:49:35.642Z,9.34
2019-04-07T00:50:35.812Z,9.50
2019-04-07T00:51:36.029Z,9.32
2019-04-07T00:52:36.056Z,9.45
2019-04-07T00:53:36.630Z,9.35
2019-04-07T00:54:36.843Z,9.32
2019-04-07T00:55:36.273Z,9.37
2019-04-07T00:56:36.450Z,9.31
2019-04-07T00:57:37.501Z,9.37
2019-04-07T00:58:36.974Z,9.38
2019-04-07T00:59:37.751Z,9.38
2019-04-07T01:00:37.365Z,9.35
2019-04-07T01:01:37.342Z,9.41
2019-04-07T01:02:37.629Z,9.30
2019-04-07T01:03:38.086Z,9.32
2019-04-07T01:04:38.754Z,9.34
2019-04-07T01:05:40.723Z,9.27
2019-04-07T01:06:39.483Z,9.31
2019-04-07T01:07:38.901Z,9.34
2019-04-07T01:08:38.746Z,9.35
2019-04-07T01:09:38.815Z,9.31
2019-04-07T01:10:39.017Z,9.32
2019-04-07T01:11:39.625Z,9.32
2019-04-07T01:12:39.960Z,9.38
2019-04-07T01:13:40.126Z,9.34
2019-04-07T01:14:40.079Z,9.30
2019-04-07T01:15:40.749Z,9.16
2019-04-07T01:16:40.670Z,9.12
2019-04-07T01:17:40.157Z,9.17
2019-04-07T01:18:40.534Z,9.17
2019-04-07T01:19:40.745Z,9.20
2019-04-07T01:20:40.807Z,9.12
2019-04-07T01:21:40.976Z,9.08
2019-04-07T01:22:41.164Z,9.03
2019-04-07T01:23:41.486Z,9.10
2019-04-07T01:24:41.770Z,8.94
2019-04-07T01:25:42.074Z,9.00
2019-04-07T01:26:42.756Z,8.93
2019-04-07T01:27:43.237Z,8.85
2019-04-07T01:28:42.907Z,8.89
2019-04-07T01:29:42.769Z,8.89
2019-04-07T01:30:42.695Z,8.78
2019-04-07T01:31:43.094Z,8.75
2019-04-07T01:32:42.934Z,8.67
2019-04-07T01:33:43.188Z,8.60
2019-04-07T01:34:43.573Z,8.64
2019-04-07T01:35:48.084Z,8.58
2019-04-07T01:36:45.591Z,8.68
2019-04-07T01:37:43.803Z,8.63
2019-04-07T01:38:44.484Z,8.70
2019-04-07T01:39:44.815Z,8.61
2019-04-07T01:40:44.347Z,8.60
2019-04-07T01:41:44.532Z,8.57
2019-04-07T01:42:44.574Z,8.60
2019-04-07T01:43:44.752Z,8.58
2019-04-07T01:44:46.137Z,8.64
2019-04-07T01:45:45.761Z,8.65
2019-04-07T01:46:45.882Z,8.63
2019-04-07T01:47:45.532Z,8.65
2019-04-07T01:48:46.843Z,8.71
2019-04-07T01:49:46.573Z,8.70
2019-04-07T01:50:46.690Z,8.73
2019-04-07T01:51:46.481Z,8.82
2019-04-07T01:52:47.013Z,8.75
2019-04-07T01:53:46.634Z,8.73
2019-04-07T01:54:47.251Z,8.71
2019-04-07T01:55:46.942Z,8.68
2019-04-07T01:56:47.083Z,8.52
2019-04-07T01:57:48.634Z,8.47
2019-04-07T01:58:47.457Z,8.54
2019-04-07T01:59:47.625Z,8.47
2019-04-07T02:00:48.452Z,8.55
2019-04-07T02:01:48.100Z,8.46
2019-04-07T02:02:48.725Z,8.50
2019-04-07T02:03:49.594Z,8.43
2019-04-07T02:04:48.957Z,8.46
2019-04-07T02:05:58.672Z,8.37
2019-04-07T02:06:51.769Z,8.39
2019-04-07T02:07:49.040Z,8.36
2019-04-07T02:08:49.217Z,8.36
2019-04-07T02:09:50.372Z,8.43
2019-04-07T02:10:49.609Z,8.47
2019-04-07T02:11:50.435Z,8.46
2019-04-07T02:12:50.628Z,8.42
2019-04-07T02:13:51.584Z,8.36
2019-04-07T02:14:50.969Z,8.29
2019-04-07T02:15:51.268Z,8.27
2019-04-07T02:16:51.202Z,8.25
2019-04-07T02:17:52.758Z,8.43
2019-04-07T02:18:51.020Z,8.22
2019-04-07T02:19:51.299Z,8.24
2019-04-07T02:20:51.632Z,8.14
2019-04-07T02:21:51.556Z,8.25
2019-04-07T02:22:52.081Z,8.13
2019-04-07T02:23:51.790Z,8.18
2019-04-07T02:24:51.953Z,8.12
2019-04-07T02:25:52.705Z,8.10
2019-04-07T02:26:53.265Z,8.07
2019-04-07T02:27:52.775Z,7.96
2019-04-07T02:28:52.696Z,7.96
2019-04-07T02:29:53.269Z,8.02
2019-04-07T02:30:54.323Z,7.95
2019-04-07T02:31:54.026Z,7.88
2019-04-07T02:32:54.389Z,7.84
2019-04-07T02:33:54.495Z,7.79
2019-04-07T02:34:54.784Z,7.70
2019-04-07T02:35:54.095Z,7.62
2019-04-07T02:36:54.262Z,7.55
2019-04-07T02:37:54.669Z,7.60
2019-04-07T02:38:54.825Z,7.51
2019-04-07T02:39:55.069Z,7.29
2019-04-07T02:40:55.701Z,7.23
2019-04-07T02:41:55.323Z,7.23
2019-04-07T02:42:55.911Z,7.23
2019-04-07T02:43:55.733Z,7.14
2019-04-07T02:44:57.372Z,7.04
2019-04-07T02:45:56.604Z,7.01
2019-04-07T02:46:57.126Z,7.23
2019-04-07T02:47:56.494Z,7.27
2019-04-07T02:48:57.408Z,7.15
2019-04-07T02:49:56.714Z,7.15
2019-04-07T02:50:57.179Z,7.08
2019-04-07T02:51:58.146Z,7.09
2019-04-07T02:52:57.785Z,7.09
2019-04-07T02:53:59.209Z,7.01
2019-04-07T02:54:57.705Z,6.91
2019-04-07T02:55:58.301Z,6.86
2019-04-07T02:56:58.102Z,6.89
2019-04-07T02:57:58.550Z,6.91
2019-04-07T02:58:59.385Z,6.93
2019-04-07T02:59:58.630Z,6.89
2019-04-07T03:00:59.306Z,6.89
2019-04-07T03:01:59.405Z,6.87
2019-04-07T03:02:59.162Z,6.71
2019-04-07T03:04:00.272Z,6.71
2019-04-07T03:04:59.956Z,6.81
2019-04-07T03:05:59.779Z,6.79
2019-04-07T03:07:00.785Z,6.86
2019-04-07T03:08:00.195Z,6.83
2019-04-07T03:09:00.470Z,6.83
2019-04-07T03:10:00.510Z,6.68
2019-04-07T03:11:00.713Z,6.82
2019-04-07T03:12:01.626Z,6.72
2019-04-07T03:13:01.117Z,6.71
2019-04-07T03:14:02.190Z,6.69
2019-04-07T03:15:02.982Z,6.71
2019-04-07T03:16:02.078Z,6.69
2019-04-07T03:17:02.358Z,6.65
2019-04-07T03:18:01.887Z,6.55
2019-04-07T03:19:02.111Z,6.60
2019-04-07T03:20:03.295Z,6.58
2019-04-07T03:21:02.541Z,6.65
2019-04-07T03:22:02.860Z,6.63
2019-04-07T03:23:03.526Z,6.61
2019-04-07T03:24:03.909Z,6.53
2019-04-07T03:25:03.756Z,6.53
2019-04-07T03:26:04.173Z,6.55
2019-04-07T03:27:03.979Z,6.60
2019-04-07T03:28:04.400Z,6.53
2019-04-07T03:29:03.841Z,6.51
2019-04-07T03:30:05.985Z,6.33
2019-04-07T03:31:27.016Z,6.40
2019-04-07T03:32:06.203Z,6.30
2019-04-07T03:33:10.521Z,6.28
2019-04-07T03:34:06.288Z,6.35
2019-04-07T03:35:06.203Z,6.40
2019-04-07T03:36:10.371Z,6.38
2019-04-07T03:37:23.896Z,6.40
2019-04-07T03:38:08.287Z,6.45
2019-04-07T03:39:06.533Z,6.27
2019-04-07T03:40:06.582Z,6.39
2019-04-07T03:41:06.184Z,6.43
2019-04-07T03:42:06.370Z,6.39
2019-04-07T03:43:07.057Z,6.42
2019-04-07T03:44:07.729Z,6.50
2019-04-07T03:45:06.826Z,6.51
2019-04-07T03:46:08.084Z,6.39
2019-04-07T03:47:07.290Z,6.38
2019-04-07T03:48:08.511Z,6.32
2019-04-07T03:49:07.542Z,6.35
2019-04-07T03:50:07.719Z,6.21
2019-04-07T03:51:09.093Z,6.24
2019-04-07T03:52:09.946Z,6.27
2019-04-07T03:53:08.350Z,5.99
2019-04-07T03:54:08.917Z,5.90
2019-04-07T03:55:08.715Z,5.80
2019-04-07T03:56:08.748Z,5.83
2019-04-07T03:57:08.999Z,5.99
2019-04-07T03:58:09.933Z,6.08
2019-04-07T03:59:09.266Z,6.14
2019-04-07T04:00:09.626Z,6.11
2019-04-07T04:01:10.184Z,6.06
2019-04-07T04:02:10.024Z,5.90
2019-04-07T04:03:10.906Z,5.98
2019-04-07T04:04:10.120Z,5.93
2019-04-07T04:05:10.784Z,5.93
2019-04-07T04:06:10.601Z,5.96
2019-04-07T04:07:22.622Z,5.93
2019-04-07T04:08:11.794Z,5.96
2019-04-07T04:09:11.790Z,5.93
2019-04-07T04:10:11.082Z,5.99
2019-04-07T04:11:11.799Z,6.02
2019-04-07T04:12:11.438Z,5.95
2019-04-07T04:13:12.296Z,5.88
2019-04-07T04:14:11.746Z,5.84
2019-04-07T04:15:12.001Z,5.78
2019-04-07T04:16:12.723Z,5.74
2019-04-07T04:17:13.000Z,5.74
2019-04-07T04:18:13.838Z,5.75
2019-04-07T04:19:14.399Z,5.81
2019-04-07T04:20:12.941Z,5.66
2019-04-07T04:21:13.091Z,5.48
2019-04-07T04:22:14.162Z,5.51
2019-04-07T04:23:14.343Z,5.42
2019-04-07T04:24:14.353Z,5.48
2019-04-07T04:25:13.854Z,5.41
2019-04-07T04:26:14.006Z,5.45
2019-04-07T04:27:14.822Z,5.49
2019-04-07T04:28:14.391Z,5.48
2019-04-07T04:29:14.520Z,5.44
2019-04-07T04:30:14.713Z,5.47
2019-04-07T04:31:15.477Z,5.52
2019-04-07T04:32:15.304Z,5.62
2019-04-07T04:33:15.938Z,5.66
2019-04-07T04:34:15.383Z,5.60
2019-04-07T04:35:15.550Z,5.59
2019-04-07T04:36:15.732Z,5.52
2019-04-07T04:37:26.795Z,5.52
2019-04-07T04:38:17.805Z,5.42
2019-04-07T04:39:18.761Z,5.47
2019-04-07T04:40:17.797Z,5.40
2019-04-07T04:41:16.854Z,5.47
2019-04-07T04:42:16.849Z,5.45
2019-04-07T04:43:17.853Z,5.49
2019-04-07T04:44:17.191Z,5.41
2019-04-07T04:45:17.908Z,5.48
2019-04-07T04:46:18.504Z,5.42
2019-04-07T04:47:18.823Z,5.41
2019-04-07T04:48:19.657Z,5.35
2019-04-07T04:49:19.737Z,5.32
2019-04-07T04:50:18.190Z,5.35
2019-04-07T04:51:18.340Z,5.38
2019-04-07T04:52:18.499Z,5.35
2019-04-07T04:53:18.670Z,5.35
2019-04-07T04:54:19.790Z,5.29
2019-04-07T04:55:19.789Z,5.37
2019-04-07T04:56:19.957Z,5.45
2019-04-07T04:57:19.920Z,5.51
2019-04-07T04:58:19.832Z,5.48
2019-04-07T04:59:20.357Z,5.48
2019-04-07T05:00:20.264Z,5.40
2019-04-07T05:01:20.785Z,5.33
2019-04-07T05:02:20.155Z,5.24
2019-04-07T05:03:21.563Z,5.19
2019-04-07T05:04:20.737Z,5.15
2019-04-07T05:05:21.223Z,5.20
2019-04-07T05:06:21.031Z,5.14
2019-04-07T05:07:20.967Z,5.35
2019-04-07T05:08:21.116Z,5.47
2019-04-07T05:09:21.297Z,5.42
2019-04-07T05:10:22.292Z,5.42
2019-04-07T05:11:21.663Z,5.52
2019-04-07T05:12:21.960Z,5.52
2019-04-07T05:13:22.491Z,5.41
2019-04-07T05:14:22.893Z,5.38
2019-04-07T05:15:22.997Z,5.41
2019-04-07T05:16:23.081Z,5.52
2019-04-07T05:17:23.307Z,5.56
2019-04-07T05:18:22.976Z,5.66
2019-04-07T05:19:23.797Z,5.63
2019-04-07T05:20:23.942Z,5.60
2019-04-07T05:21:23.981Z,5.58
2019-04-07T05:22:23.646Z,5.67
2019-04-07T05:23:24.166Z,5.78
2019-04-07T05:24:24.717Z,5.87
2019-04-07T05:25:24.894Z,5.90
2019-04-07T05:26:24.325Z,6.11
2019-04-07T05:27:25.088Z,6.30
2019-04-07T05:28:24.627Z,6.27
2019-04-07T05:29:24.824Z,6.28
2019-04-07T05:30:24.988Z,6.57
2019-04-07T05:31:25.814Z,6.65
2019-04-07T05:32:25.357Z,6.72
2019-04-07T05:33:25.534Z,6.76
2019-04-07T05:34:25.805Z,6.91
2019-04-07T05:35:27.499Z,6.89
2019-04-07T05:36:26.830Z,6.87
2019-04-07T05:37:26.842Z,6.90
2019-04-07T05:38:26.512Z,7.01
2019-04-07T05:39:27.230Z,7.05
2019-04-07T05:40:26.897Z,6.86
2019-04-07T05:41:27.345Z,6.89
2019-04-07T05:42:27.842Z,6.97
2019-04-07T05:43:27.424Z,6.97
2019-04-07T05:44:27.838Z,7.12
2019-04-07T05:45:27.973Z,7.34
2019-04-07T05:46:28.298Z,7.70
2019-04-07T05:47:29.828Z,7.71
2019-04-07T05:48:29.116Z,7.82
2019-04-07T05:49:28.559Z,7.89
2019-04-07T05:50:29.668Z,7.89
2019-04-07T05:51:30.073Z,7.85
2019-04-07T05:52:30.572Z,8.02
2019-04-07T05:53:29.888Z,8.31
2019-04-07T05:54:29.563Z,8.60
2019-04-07T05:55:30.414Z,8.76
2019-04-07T05:56:30.403Z,8.93
2019-04-07T05:57:33.343Z,9.35
2019-04-07T05:58:31.310Z,9.48
2019-04-07T05:59:31.937Z,9.38
2019-04-07T06:00:30.742Z,8.85
2019-04-07T06:01:31.297Z,8.61
2019-04-07T06:02:33.413Z,8.50
2019-04-07T06:03:32.121Z,8.21
2019-04-07T06:04:31.527Z,8.29
2019-04-07T06:05:32.296Z,8.61
2019-04-07T06:06:31.720Z,8.83
2019-04-07T06:07:34.846Z,8.98
2019-04-07T06:08:37.149Z,9.26
2019-04-07T06:09:35.075Z,9.44
2019-04-07T06:10:32.443Z,9.55
2019-04-07T06:11:35.269Z,9.71
2019-04-07T06:12:34.905Z,9.96
2019-04-07T06:13:33.054Z,10.16
2019-04-07T06:14:33.495Z,10.38
2019-04-07T06:15:33.566Z,10.42
2019-04-07T06:16:34.275Z,10.46
2019-04-07T06:17:33.773Z,10.32
2019-04-07T06:18:34.301Z,10.11
2019-04-07T06:19:40.618Z,10.13
2019-04-07T06:20:35.365Z,10.26
2019-04-07T06:21:34.382Z,10.38
2019-04-07T06:22:35.770Z,10.55
2019-04-07T06:23:35.421Z,10.58
2019-04-07T06:24:35.144Z,10.57
2019-04-07T06:25:40.868Z,10.60
2019-04-07T06:26:40.620Z,11.24
2019-04-07T06:27:35.807Z,11.27
2019-04-07T06:28:35.666Z,11.16
2019-04-07T06:29:36.613Z,11.05
2019-04-07T06:30:36.899Z,10.88
2019-04-07T06:31:38.100Z,10.70
2019-04-07T06:32:38.394Z,10.76
2019-04-07T06:33:39.265Z,10.60
2019-04-07T06:34:39.890Z,10.52
2019-04-07T06:35:38.977Z,10.80
2019-04-07T06:36:37.469Z,10.87
2019-04-07T06:37:37.620Z,11.06
2019-04-07T06:38:41.544Z,11.13
2019-04-07T06:39:40.658Z,11.02
2019-04-07T06:40:38.065Z,11.06
2019-04-07T06:41:38.949Z,11.11
2019-04-07T06:42:38.790Z,11.30
2019-04-07T06:43:40.134Z,11.45
2019-04-07T06:44:40.003Z,11.39
2019-04-07T06:45:39.921Z,11.63
2019-04-07T06:46:40.088Z,11.88
2019-04-07T06:47:39.805Z,12.05
2019-04-07T06:48:40.609Z,12.33
2019-04-07T06:49:44.682Z,12.19
2019-04-07T06:50:49.372Z,12.43
2019-04-07T06:51:42.405Z,12.61
2019-04-07T06:52:41.779Z,12.84
2019-04-07T06:53:41.621Z,12.63
2019-04-07T06:54:40.876Z,13.03
2019-04-07T06:55:41.715Z,13.27
2019-04-07T06:56:41.291Z,13.55
2019-04-07T06:57:41.690Z,13.61
2019-04-07T06:58:42.913Z,13.27
2019-04-07T06:59:45.656Z,13.62
2019-04-07T07:00:44.322Z,13.94
2019-04-07T07:01:42.739Z,14.06
2019-04-07T07:02:44.294Z,14.20
2019-04-07T07:03:43.400Z,14.38
2019-04-07T07:04:45.447Z,14.60
2019-04-07T07:05:45.836Z,14.78
2019-04-07T07:06:46.103Z,14.66
2019-04-07T07:07:45.821Z,14.67
2019-04-07T07:08:47.282Z,14.41
2019-04-07T07:09:44.367Z,14.74
2019-04-07T07:10:43.504Z,14.79
2019-04-07T07:11:44.533Z,14.98
2019-04-07T07:12:43.910Z,15.04
2019-04-07T07:13:45.054Z,15.12
2019-04-07T07:14:46.945Z,15.05
2019-04-07T07:15:47.095Z,14.98
2019-04-07T07:16:46.705Z,14.94
2019-04-07T07:17:47.861Z,15.01
2019-04-07T07:18:47.074Z,15.41
2019-04-07T07:19:45.135Z,15.60
2019-04-07T07:20:45.285Z,15.51
2019-04-07T07:21:46.792Z,15.58
2019-04-07T07:22:47.559Z,15.56
2019-04-07T07:23:48.890Z,15.53
2019-04-07T07:24:47.813Z,15.91
2019-04-07T07:25:47.529Z,16.14
2019-04-07T07:26:46.355Z,16.34
2019-04-07T07:27:46.567Z,16.44
2019-04-07T07:28:47.004Z,16.52
2019-04-07T07:29:47.694Z,16.70
2019-04-07T07:30:51.889Z,15.98
2019-04-07T07:31:51.138Z,15.62
2019-04-07T07:32:47.460Z,15.37
2019-04-07T07:33:47.631Z,15.38
2019-04-07T07:34:47.938Z,15.51
2019-04-07T07:35:49.180Z,15.25
2019-04-07T07:36:52.275Z,15.19
2019-04-07T07:37:50.983Z,15.31
2019-04-07T07:38:57.522Z,15.16
2019-04-07T07:39:50.854Z,15.27
2019-04-07T07:40:50.138Z,15.11
2019-04-07T07:41:51.666Z,15.05
2019-04-07T07:42:51.107Z,15.20
2019-04-07T07:43:50.440Z,15.28
2019-04-07T07:44:50.340Z,15.28
2019-04-07T07:45:50.147Z,15.37
2019-04-07T07:46:51.513Z,15.35
2019-04-07T07:47:53.772Z,15.22
2019-04-07T07:48:52.188Z,15.25
2019-04-07T07:49:52.021Z,15.30
2019-04-07T07:50:51.209Z,15.41
2019-04-07T07:51:51.817Z,15.33
2019-04-07T07:52:54.411Z,15.35
2019-04-07T07:53:52.667Z,15.37
2019-04-07T07:54:51.891Z,15.48
2019-04-07T07:55:51.823Z,15.59
2019-04-07T07:56:52.512Z,15.64
2019-04-07T07:57:56.764Z,15.64
2019-04-07T07:58:53.918Z,15.68
2019-04-07T07:59:52.383Z,15.62
2019-04-07T08:00:52.570Z,15.67
2019-04-07T08:01:53.412Z,15.77
2019-04-07T08:02:54.632Z,15.73
2019-04-07T08:03:55.413Z,15.73
2019-04-07T08:04:56.745Z,15.73
2019-04-07T08:05:54.349Z,15.68
2019-04-07T08:06:53.489Z,15.64
2019-04-07T08:07:54.054Z,15.70
2019-04-07T08:09:01.160Z,15.70
2019-04-07T08:09:56.596Z,15.81
2019-04-07T08:10:58.569Z,15.84
2019-04-07T08:11:56.255Z,15.95
2019-04-07T08:12:54.498Z,16.11
2019-04-07T08:13:55.428Z,16.17
2019-04-07T08:14:57.261Z,16.22
2019-04-07T08:15:57.097Z,16.14
2019-04-07T08:16:56.127Z,16.17
2019-04-07T08:17:55.284Z,16.25
2019-04-07T08:18:57.173Z,16.22
2019-04-07T08:19:56.730Z,16.01
2019-04-07T08:20:55.761Z,16.44
2019-04-07T08:21:55.910Z,16.33
2019-04-07T08:22:56.206Z,16.42
2019-04-07T08:23:56.876Z,16.40
2019-04-07T08:24:56.383Z,16.52
2019-04-07T08:25:58.857Z,16.82
2019-04-07T08:26:59.022Z,17.07
2019-04-07T08:27:58.173Z,17.12
2019-04-07T08:28:56.983Z,17.33
2019-04-07T08:29:57.230Z,16.96
2019-04-07T08:30:57.534Z,16.70
2019-04-07T08:31:57.653Z,16.82
2019-04-07T08:33:00.284Z,17.02
2019-04-07T08:34:00.046Z,17.47
2019-04-07T08:35:02.081Z,17.65
2019-04-07T08:36:00.415Z,17.87
2019-04-07T08:36:58.537Z,17.51
2019-04-07T08:37:58.574Z,17.36
2019-04-07T08:38:59.495Z,17.17
2019-04-07T08:39:59.438Z,17.47
2019-04-07T08:40:59.095Z,17.57
2019-04-07T08:42:01.138Z,17.65
2019-04-07T08:42:59.451Z,17.81
2019-04-07T08:43:59.847Z,17.87
2019-04-07T08:45:00.638Z,18.16
2019-04-07T08:46:03.843Z,18.20
2019-04-07T08:47:02.620Z,18.31
2019-04-07T08:48:01.329Z,17.87
2019-04-07T08:49:00.548Z,18.01
2019-04-07T08:50:00.731Z,17.76
2019-04-07T08:51:01.117Z,17.66
2019-04-07T08:52:07.287Z,17.70
2019-04-07T08:53:02.252Z,17.79
2019-04-07T08:54:04.148Z,18.07
2019-04-07T08:55:01.894Z,18.09
2019-04-07T08:56:01.642Z,18.10
2019-04-07T08:57:01.766Z,17.99
2019-04-07T08:58:03.658Z,18.01
2019-04-07T08:59:03.787Z,18.17
2019-04-07T09:00:03.803Z,17.89
2019-04-07T09:01:03.358Z,18.07
2019-04-07T09:02:03.171Z,18.05
2019-04-07T09:03:07.803Z,18.39
2019-04-07T09:04:06.639Z,18.05
2019-04-07T09:05:03.216Z,17.94
2019-04-07T09:06:04.582Z,18.21
2019-04-07T09:07:05.113Z,18.09
2019-04-07T09:08:06.107Z,18.17
2019-04-07T09:09:07.305Z,18.09
2019-04-07T09:10:04.241Z,18.17
2019-04-07T09:11:04.669Z,18.46
2019-04-07T09:12:04.861Z,18.42
2019-04-07T09:13:07.773Z,18.68
2019-04-07T09:14:07.632Z,18.94
2019-04-07T09:15:09.453Z,19.13
2019-04-07T09:16:06.345Z,18.71
2019-04-07T09:17:05.521Z,18.62
2019-04-07T09:18:05.718Z,18.93
2019-04-07T09:19:07.383Z,19.02
2019-04-07T09:20:10.390Z,18.97
2019-04-07T09:21:07.862Z,18.62
2019-04-07T09:22:07.378Z,18.74
2019-04-07T09:23:07.104Z,18.74
2019-04-07T09:24:08.276Z,18.64
2019-04-07T09:25:09.260Z,18.76
2019-04-07T09:26:11.085Z,18.68
2019-04-07T09:27:13.951Z,18.72
2019-04-07T09:28:08.771Z,18.65
2019-04-07T09:29:08.378Z,18.49
2019-04-07T09:30:10.086Z,18.49
2019-04-07T09:31:09.173Z,18.68
2019-04-07T09:32:08.425Z,18.89
2019-04-07T09:33:08.547Z,18.96
2019-04-07T09:34:09.148Z,18.86
2019-04-07T09:35:09.755Z,18.99
2019-04-07T09:36:09.080Z,19.01
2019-04-07T09:37:09.690Z,19.32
2019-04-07T09:38:09.840Z,18.90
2019-04-07T09:39:09.416Z,18.56
2019-04-07T09:40:09.548Z,18.79
2019-04-07T09:41:09.704Z,19.25
2019-04-07T09:42:09.850Z,19.31
2019-04-07T09:43:10.089Z,19.12
2019-04-07T09:44:10.366Z,19.01
2019-04-07T09:45:11.594Z,19.09
2019-04-07T09:46:11.818Z,19.12
2019-04-07T09:47:15.936Z,19.21
2019-04-07T09:48:10.807Z,19.09
2019-04-07T09:49:11.010Z,19.10
2019-04-07T09:50:11.393Z,19.21
2019-04-07T09:51:11.313Z,19.42
2019-04-07T09:52:15.011Z,19.01
2019-04-07T09:53:13.821Z,18.79
2019-04-07T09:54:12.261Z,19.01
2019-04-07T09:55:12.995Z,19.10
2019-04-07T09:56:12.957Z,19.23
2019-04-07T09:57:14.093Z,18.99
2019-04-07T09:58:12.569Z,19.12
2019-04-07T09:59:16.764Z,19.49
2019-04-07T10:00:14.910Z,20.00
2019-04-07T10:01:15.445Z,19.80
2019-04-07T10:02:14.560Z,19.82
2019-04-07T10:03:15.154Z,19.62
2019-04-07T10:04:14.610Z,19.65
2019-04-07T10:05:13.859Z,19.67
2019-04-07T10:06:13.980Z,19.45
2019-04-07T10:07:16.019Z,19.62
2019-04-07T10:08:18.275Z,19.76
2019-04-07T10:09:15.797Z,19.71
2019-04-07T10:10:14.980Z,19.65
2019-04-07T10:11:16.054Z,19.85
2019-04-07T10:12:15.175Z,19.64
2019-04-07T10:13:16.323Z,19.57
2019-04-07T10:14:15.221Z,19.78
2019-04-07T10:15:15.462Z,19.70
2019-04-07T10:16:16.482Z,19.83
2019-04-07T10:17:16.580Z,18.57
2019-04-07T10:18:16.792Z,18.13
2019-04-07T10:19:16.205Z,18.65
2019-04-07T10:20:16.863Z,18.54
2019-04-07T10:21:17.365Z,18.65
2019-04-07T10:22:17.555Z,18.49
2019-04-07T10:23:16.746Z,19.02
2019-04-07T10:24:19.692Z,19.39
2019-04-07T10:25:17.114Z,19.12
2019-04-07T10:26:17.898Z,18.72
2019-04-07T10:27:18.704Z,19.12
2019-04-07T10:28:17.759Z,19.27
2019-04-07T10:29:18.628Z,19.38
2019-04-07T10:30:17.937Z,19.53
2019-04-07T10:31:19.794Z,19.71
2019-04-07T10:32:19.996Z,20.08
2019-04-07T10:33:19.358Z,19.45
2019-04-07T10:34:18.614Z,19.75
2019-04-07T10:35:18.981Z,19.85
2019-04-07T10:36:19.478Z,19.78
2019-04-07T10:37:19.868Z,19.46
2019-04-07T10:38:20.010Z,19.57
2019-04-07T10:39:19.842Z,19.28
2019-04-07T10:40:22.152Z,19.27
2019-04-07T10:41:21.752Z,19.53
2019-04-07T10:42:20.186Z,19.83
2019-04-07T10:43:20.211Z,19.57
2019-04-07T10:44:21.336Z,19.40
2019-04-07T10:45:20.712Z,19.07
2019-04-07T10:46:21.508Z,18.62
2019-04-07T10:47:21.174Z,18.78
2019-04-07T10:48:21.002Z,18.93
2019-04-07T10:49:22.663Z,19.25
2019-04-07T10:50:22.188Z,18.65
2019-04-07T10:51:21.487Z,18.87
2019-04-07T10:52:21.882Z,19.47
2019-04-07T10:53:22.704Z,19.01
2019-04-07T10:54:22.196Z,18.99
2019-04-07T10:55:22.234Z,18.50
2019-04-07T10:56:23.536Z,19.05
2019-04-07T10:57:23.161Z,19.31
2019-04-07T10:58:23.050Z,19.34
2019-04-07T10:59:23.538Z,19.17
2019-04-07T11:00:24.063Z,18.97
2019-04-07T11:01:23.379Z,18.90
2019-04-07T11:02:23.775Z,18.91
2019-04-07T11:03:23.734Z,19.53
2019-04-07T11:04:24.014Z,19.90
2019-04-07T11:05:24.475Z,20.10
2019-04-07T11:06:24.254Z,20.04
2019-04-07T11:07:24.944Z,20.20
2019-04-07T11:08:25.303Z,20.54
2019-04-07T11:09:25.590Z,20.40
2019-04-07T11:10:34.629Z,19.87
2019-04-07T11:11:27.183Z,20.10
2019-04-07T11:12:25.304Z,20.51
2019-04-07T11:13:25.456Z,20.58
2019-04-07T11:14:26.952Z,20.56
2019-04-07T11:15:25.952Z,19.92
2019-04-07T11:16:26.282Z,20.23
2019-04-07T11:17:26.098Z,20.48
2019-04-07T11:18:27.627Z,20.41
2019-04-07T11:19:28.411Z,20.01
2019-04-07T11:20:28.006Z,20.40
2019-04-07T11:21:26.728Z,20.51
2019-04-07T11:22:26.902Z,20.10
2019-04-07T11:23:27.055Z,20.48
2019-04-07T11:24:27.794Z,20.75
2019-04-07T11:25:27.614Z,20.79
2019-04-07T11:26:27.573Z,21.00
2019-04-07T11:27:27.789Z,21.22
2019-04-07T11:28:29.054Z,20.66
2019-04-07T11:29:29.891Z,20.61
2019-04-07T11:30:28.869Z,20.60
2019-04-07T11:31:28.535Z,20.44
2019-04-07T11:32:28.914Z,20.87
2019-04-07T11:33:29.048Z,20.69
2019-04-07T11:34:29.302Z,20.64
2019-04-07T11:35:30.749Z,21.03
2019-04-07T11:36:29.849Z,20.73
2019-04-07T11:37:29.523Z,20.79
2019-04-07T11:38:29.685Z,21.51
2019-04-07T11:39:30.715Z,20.91
2019-04-07T11:40:41.549Z,21.42
2019-04-07T11:41:31.667Z,20.91
2019-04-07T11:42:30.657Z,20.46
2019-04-07T11:43:30.556Z,20.82
2019-04-07T11:44:31.273Z,20.34
2019-04-07T11:45:31.405Z,19.98
2019-04-07T11:46:31.890Z,19.92
2019-04-07T11:47:31.760Z,20.00
2019-04-07T11:48:31.889Z,19.30
2019-04-07T11:49:31.591Z,19.98
2019-04-07T11:50:32.614Z,20.35
2019-04-07T11:51:32.450Z,20.71
2019-04-07T11:52:32.104Z,20.69
2019-04-07T11:53:32.973Z,21.12
2019-04-07T11:54:32.731Z,21.45
2019-04-07T11:55:33.374Z,21.73
2019-04-07T11:56:32.739Z,21.86
2019-04-07T11:57:33.471Z,22.21
2019-04-07T11:58:34.513Z,21.93
2019-04-07T11:59:34.927Z,21.49
2019-04-07T12:00:33.418Z,21.48
2019-04-07T12:01:33.852Z,21.61
2019-04-07T12:02:33.710Z,21.63
2019-04-07T12:03:34.313Z,21.08
2019-04-07T12:04:34.544Z,20.12
2019-04-07T12:05:34.277Z,19.76
2019-04-07T12:06:35.314Z,19.30
2019-04-07T12:07:34.613Z,18.94
2019-04-07T12:08:36.285Z,18.97
2019-04-07T12:09:36.253Z,19.02
2019-04-07T12:10:35.903Z,18.93
2019-04-07T12:11:36.245Z,18.89
2019-04-07T12:12:35.646Z,19.52
2019-04-07T12:13:35.733Z,19.76
2019-04-07T12:14:36.318Z,20.22
2019-04-07T12:15:36.085Z,20.42
2019-04-07T12:16:37.024Z,20.91
2019-04-07T12:17:39.469Z,21.03
2019-04-07T12:18:37.631Z,21.27
2019-04-07T12:19:36.799Z,21.70
2019-04-07T12:20:37.618Z,21.91
2019-04-07T12:21:38.260Z,21.22
2019-04-07T12:22:38.007Z,20.30
2019-04-07T12:23:38.244Z,19.70
2019-04-07T12:24:38.001Z,20.31
2019-04-07T12:25:38.457Z,20.85
2019-04-07T12:26:41.919Z,21.06
2019-04-07T12:27:42.912Z,21.24
2019-04-07T12:28:40.066Z,21.27
2019-04-07T12:29:39.778Z,21.90
2019-04-07T12:30:39.102Z,21.67
2019-04-07T12:31:39.181Z,21.52
2019-04-07T12:32:40.260Z,21.43
2019-04-07T12:33:40.456Z,21.30
2019-04-07T12:34:41.775Z,20.96
2019-04-07T12:35:39.878Z,21.01
2019-04-07T12:36:40.820Z,21.18
2019-04-07T12:37:42.377Z,21.09
2019-04-07T12:38:43.251Z,20.85
2019-04-07T12:39:41.734Z,20.87
2019-04-07T12:40:40.707Z,21.03
2019-04-07T12:41:40.886Z,20.07
2019-04-07T12:42:42.757Z,19.72
2019-04-07T12:43:42.822Z,19.57
2019-04-07T12:44:41.830Z,19.64
2019-04-07T12:45:41.721Z,19.43
2019-04-07T12:46:41.880Z,20.38
2019-04-07T12:47:42.056Z,20.78
2019-04-07T12:48:42.347Z,20.96
2019-04-07T12:49:44.961Z,21.24
2019-04-07T12:50:43.693Z,21.27
2019-04-07T12:51:43.018Z,21.86
2019-04-07T12:52:42.958Z,21.68
2019-04-07T12:53:43.399Z,21.77
2019-04-07T12:54:43.733Z,21.75
2019-04-07T12:55:49.634Z,21.45
2019-04-07T12:56:45.568Z,21.05
2019-04-07T12:57:44.684Z,20.53
2019-04-07T12:58:46.987Z,20.94
2019-04-07T12:59:48.712Z,21.51
2019-04-07T13:00:57.820Z,21.58
2019-04-07T13:01:49.216Z,21.45
2019-04-07T13:02:47.475Z,21.34
2019-04-07T13:03:46.267Z,19.90
2019-04-07T13:04:46.247Z,20.54
2019-04-07T13:05:45.337Z,21.51
2019-04-07T13:06:45.528Z,20.83